Aeroporto :
LOGIN :

Iscrizione | Disclaimer

   EN    FR    IT 

 










Sommario :    VFR   VFR Marginale   IFR   IFR Intensivo   IFR Molto Intensivo
Visibilità : 
Base nubi : 
>= 8 km
>= 3000ft
5 / 8 km
1000 / 3000 ft
1500m / 5 km
500 / 1000 ft
800 / 1500m
200 / 500 ft
< 800m
< 200 ft
Simboli :   Temporali  Nebbia  Neve Forte  Precipitazioni Forti  Vento > 20 kt
SIGMETs :   Varie  Temporali  Ghiacco  Turbolenza  Onda orograficha  Ceneri Vulcaniche






- Altitudine del aeroporto : 72 ft
- Codice IATA : UDE


EHVK - Volkel Airbase

ULTIMO METAR :
  • 061928Z AUTO 34002KT 6000 BR NCD 00/00 Q1039 WHT BECMG 3500 BR MIFG

METARs OBSOLETI :
  • 061855Z AUTO 32002KT 9999 NCD 01/M00 Q1040 BLU BECMG 3500 BR MIFG
  • 061825Z AUTO 34001KT 9999 NCD 01/01 Q1040 BLU BECMG 3500 BR MIFG
  • 061755Z AUTO 30002KT 9999 NCD 01/01 Q1040 BLU BECMG 3500 BR MIFG
  • 061725Z AUTO VRB01KT 9999 NCD 03/02 Q1040 BLU NOSIG
  • 061655Z AUTO 10001KT 9999 NCD 04/02 Q1040 BLU NOSIG

TAF TAF EHVK
Valido dal 06 a 18 ore il 07 a 06 ore UTC


061748Z 0618/0706 07004KT 9999 FEW030
BECMG 0619/0621 3500 BR MIFG
TEMPO 0621/0706 1200 BCFG
PROB40
TEMPO 0621/0702 SCT010 BKN014
PROB30 0621/0706 0400 FZFG BKN001



MetMap, La meteo Aeronautica in un colpo d'occhio ! - Copyright ORBIFLY Dicembre 2007 - Disclaimer

ORBIFLY MET'MAP TEAM :

Programmazione e sviluppo : Alexandra Zaïnal
Concezione : Baudouin d'Aumeries
Supporto tecnico e logistico : Manuel Goepfert
Aiuto : Marc-Olivier Méhu
Aiuto per la traduzione : Arnaldo La Scala




FONTI E CREDITI :

   NOAA